sensor_id;sensor_type;location;lat;lon;timestamp;pressure;altitude;pressure_sealevel;temperature;humidity
45357;BME280;31092;51.924;21.448;2023-05-07T00:00:00;100819.47;;;4.50;100.00
45357;BME280;31092;51.924;21.448;2023-05-07T00:02:25;100823.75;;;4.52;100.00
45357;BME280;31092;51.924;21.448;2023-05-07T00:04:50;100817.56;;;4.52;100.00
45357;BME280;31092;51.924;21.448;2023-05-07T00:07:17;100823.75;;;4.52;100.00
45357;BME280;31092;51.924;21.448;2023-05-07T00:09:42;100825.56;;;4.52;100.00
45357;BME280;31092;51.924;21.448;2023-05-07T00:12:07;100828.94;;;4.54;100.00
45357;BME280;31092;51.924;21.448;2023-05-07T00:14:33;100825.44;;;4.53;100.00
45357;BME280;31092;51.924;21.448;2023-05-07T00:16:58;100828.09;;;4.53;100.00
45357;BME280;31092;51.924;21.448;2023-05-07T00:19:24;100838.66;;;4.55;100.00
45357;BME280;31092;51.924;21.448;2023-05-07T00:21:49;100839.63;;;4.54;100.00
45357;BME280;31092;51.924;21.448;2023-05-07T00:24:14;100829.78;;;4.54;100.00
45357;BME280;31092;51.924;21.448;2023-05-07T00:26:40;100834.19;;;4.55;100.00
45357;BME280;31092;51.924;21.448;2023-05-07T00:29:05;100837.72;;;4.56;100.00
45357;BME280;31092;51.924;21.448;2023-05-07T00:31:30;100830.56;;;4.56;100.00
45357;BME280;31092;51.924;21.448;2023-05-07T00:33:56;100824.47;;;4.54;100.00
45357;BME280;31092;51.924;21.448;2023-05-07T00:36:21;100834.06;;;4.57;100.00
45357;BME280;31092;51.924;21.448;2023-05-07T00:38:48;100840.25;;;4.57;100.00
45357;BME280;31092;51.924;21.448;2023-05-07T00:41:13;100840.25;;;4.57;100.00
45357;BME280;31092;51.924;21.448;2023-05-07T00:43:38;100842.91;;;4.57;100.00
45357;BME280;31092;51.924;21.448;2023-05-07T00:46:04;100850.81;;;4.59;100.00
45357;BME280;31092;51.924;21.448;2023-05-07T00:48:30;100855.19;;;4.60;100.00
45357;BME280;31092;51.924;21.448;2023-05-07T00:50:56;100845.50;;;4.59;100.00
45357;BME280;31092;51.924;21.448;2023-05-07T00:53:21;100852.53;;;4.60;100.00
45357;BME280;31092;51.924;21.448;2023-05-07T00:55:47;100847.19;;;4.60;100.00
45357;BME280;31092;51.924;21.448;2023-05-07T00:58:13;100852.41;;;4.62;100.00
45357;BME280;31092;51.924;21.448;2023-05-07T01:00:38;100846.97;;;4.63;100.00
45357;BME280;31092;51.924;21.448;2023-05-07T01:03:04;100862.13;;;4.63;100.00
45357;BME280;31092;51.924;21.448;2023-05-07T01:05:29;100851.53;;;4.61;100.00
45357;BME280;31092;51.924;21.448;2023-05-07T01:07:55;100847.06;;;4.62;100.00
45357;BME280;31092;51.924;21.448;2023-05-07T01:10:21;100850.56;;;4.62;100.00
45357;BME280;31092;51.924;21.448;2023-05-07T01:12:47;100852.31;;;4.63;100.00
45357;BME280;31092;51.924;21.448;2023-05-07T01:15:13;100854.97;;;4.63;100.00
45357;BME280;31092;51.924;21.448;2023-05-07T01:17:39;100859.34;;;4.64;100.00
45357;BME280;31092;51.924;21.448;2023-05-07T01:20:05;100855.69;;;4.65;100.00
45357;BME280;31092;51.924;21.448;2023-05-07T01:22:35;100863.69;;;4.65;100.00
45357;BME280;31092;51.924;21.448;2023-05-07T01:25:04;100867.22;;;4.66;100.00
45357;BME280;31092;51.924;21.448;2023-05-07T01:27:30;100861.03;;;4.65;100.00
45357;BME280;31092;51.924;21.448;2023-05-07T01:29:55;100869.88;;;4.66;100.00
45357;BME280;31092;51.924;21.448;2023-05-07T01:35:13;100859.22;;;4.66;100.00
45357;BME280;31092;51.924;21.448;2023-05-07T01:37:40;100863.59;;;4.67;100.00
45357;BME280;31092;51.924;21.448;2023-05-07T01:40:06;100866.28;;;4.67;100.00
45357;BME280;31092;51.924;21.448;2023-05-07T01:42:32;100867.22;;;4.66;100.00
45357;BME280;31092;51.924;21.448;2023-05-07T01:44:58;100867.34;;;4.64;100.00
45357;BME280;31092;51.924;21.448;2023-05-07T01:47:24;100866.38;;;4.65;100.00
45357;BME280;31092;51.924;21.448;2023-05-07T01:49:50;100863.69;;;4.65;100.00
45357;BME280;31092;51.924;21.448;2023-05-07T01:52:15;100874.28;;;4.67;100.00
45357;BME280;31092;51.924;21.448;2023-05-07T01:54:40;100875.13;;;4.67;100.00
45357;BME280;31092;51.924;21.448;2023-05-07T01:57:06;100876.94;;;4.67;100.00
45357;BME280;31092;51.924;21.448;2023-05-07T01:59:31;100872.44;;;4.67;100.00
45357;BME280;31092;51.924;21.448;2023-05-07T02:01:56;100880.47;;;4.67;100.00
45357;BME280;31092;51.924;21.448;2023-05-07T02:04:22;100874.28;;;4.67;100.00
45357;BME280;31092;51.924;21.448;2023-05-07T02:06:47;100882.16;;;4.68;100.00
45357;BME280;31092;51.924;21.448;2023-05-07T02:09:13;100878.50;;;4.69;100.00
45357;BME280;31092;51.924;21.448;2023-05-07T02:11:39;100870.41;;;4.71;100.00
45357;BME280;31092;51.924;21.448;2023-05-07T02:14:05;100869.44;;;4.72;100.00
45357;BME280;31092;51.924;21.448;2023-05-07T02:16:30;100886.28;;;4.72;100.00
45357;BME280;31092;51.924;21.448;2023-05-07T02:18:55;100878.41;;;4.71;100.00
45357;BME280;31092;51.924;21.448;2023-05-07T02:21:21;100871.25;;;4.71;100.00
45357;BME280;31092;51.924;21.448;2023-05-07T02:23:46;100876.59;;;4.71;100.00
45357;BME280;31092;51.924;21.448;2023-05-07T02:26:12;100881.09;;;4.71;100.00
45357;BME280;31092;51.924;21.448;2023-05-07T02:28:37;100878.19;;;4.74;100.00
45357;BME280;31092;51.924;21.448;2023-05-07T02:31:03;100890.69;;;4.73;100.00
45357;BME280;31092;51.924;21.448;2023-05-07T02:33:28;100889.81;;;4.73;100.00
45357;BME280;31092;51.924;21.448;2023-05-07T02:35:53;100886.19;;;4.74;100.00
45357;BME280;31092;51.924;21.448;2023-05-07T02:38:19;100885.22;;;4.75;100.00
45357;BME280;31092;51.924;21.448;2023-05-07T02:40:44;100890.44;;;4.76;100.00
45357;BME280;31092;51.924;21.448;2023-05-07T02:43:10;100882.34;;;4.78;100.00
45357;BME280;31092;51.924;21.448;2023-05-07T02:45:35;100877.97;;;4.77;100.00
45357;BME280;31092;51.924;21.448;2023-05-07T02:48:02;100878.91;;;4.76;100.00
45357;BME280;31092;51.924;21.448;2023-05-07T02:50:28;100876.16;;;4.77;100.00
45357;BME280;31092;51.924;21.448;2023-05-07T02:52:53;100891.19;;;4.78;100.00
45357;BME280;31092;51.924;21.448;2023-05-07T02:55:18;100890.34;;;4.78;100.00
45357;BME280;31092;51.924;21.448;2023-05-07T02:57:44;100889.38;;;4.79;100.00
45357;BME280;31092;51.924;21.448;2023-05-07T03:00:10;100881.50;;;4.77;100.00
45357;BME280;31092;51.924;21.448;2023-05-07T03:02:36;100885.00;;;4.78;100.00
45357;BME280;31092;51.924;21.448;2023-05-07T03:05:01;100894.84;;;4.77;100.00
45357;BME280;31092;51.924;21.448;2023-05-07T03:07:26;100893.09;;;4.76;100.00
45357;BME280;31092;51.924;21.448;2023-05-07T03:09:52;100896.75;;;4.75;100.00
45357;BME280;31092;51.924;21.448;2023-05-07T03:12:18;100903.69;;;4.78;100.00
45357;BME280;31092;51.924;21.448;2023-05-07T03:14:44;100900.16;;;4.77;100.00
45357;BME280;31092;51.924;21.448;2023-05-07T03:17:09;100903.69;;;4.78;100.00
45357;BME280;31092;51.924;21.448;2023-05-07T03:19:34;100898.34;;;4.78;100.00
45357;BME280;31092;51.924;21.448;2023-05-07T03:22:00;100897.50;;;4.77;100.00
45357;BME280;31092;51.924;21.448;2023-05-07T03:24:25;100907.22;;;4.78;100.00
45357;BME280;31092;51.924;21.448;2023-05-07T03:26:50;100914.16;;;4.81;100.00
45357;BME280;31092;51.924;21.448;2023-05-07T03:29:16;100914.16;;;4.81;100.00
45357;BME280;31092;51.924;21.448;2023-05-07T03:31:41;100916.69;;;4.83;100.00
45357;BME280;31092;51.924;21.448;2023-05-07T03:34:06;100910.38;;;4.84;100.00
45357;BME280;31092;51.924;21.448;2023-05-07T03:36:32;100905.78;;;4.86;100.00
45357;BME280;31092;51.924;21.448;2023-05-07T03:38:57;100917.31;;;4.86;100.00
45357;BME280;31092;51.924;21.448;2023-05-07T03:41:22;100917.09;;;4.89;100.00
45357;BME280;31092;51.924;21.448;2023-05-07T03:43:48;100920.75;;;4.88;100.00
45357;BME280;31092;51.924;21.448;2023-05-07T03:46:13;100925.94;;;4.90;100.00
45357;BME280;31092;51.924;21.448;2023-05-07T03:48:38;100926.06;;;4.88;100.00
45357;BME280;31092;51.924;21.448;2023-05-07T03:51:07;100926.94;;;4.89;100.00
45357;BME280;31092;51.924;21.448;2023-05-07T03:53:33;100930.44;;;4.89;100.00
45357;BME280;31092;51.924;21.448;2023-05-07T03:55:58;100932.25;;;4.89;100.00
45357;BME280;31092;51.924;21.448;2023-05-07T03:58:23;100938.56;;;4.88;100.00
45357;BME280;31092;51.924;21.448;2023-05-07T04:00:49;100939.53;;;4.87;100.00
45357;BME280;31092;51.924;21.448;2023-05-07T04:03:14;100942.41;;;4.84;100.00
45357;BME280;31092;51.924;21.448;2023-05-07T04:05:40;100938.03;;;4.83;100.00
45357;BME280;31092;51.924;21.448;2023-05-07T04:08:05;100943.50;;;4.81;100.00
45357;BME280;31092;51.924;21.448;2023-05-07T04:10:31;100943.50;;;4.81;100.00
45357;BME280;31092;51.924;21.448;2023-05-07T04:12:56;100954.19;;;4.81;100.00
45357;BME280;31092;51.924;21.448;2023-05-07T04:15:23;100946.91;;;4.83;100.00
45357;BME280;31092;51.924;21.448;2023-05-07T04:17:48;100952.13;;;4.85;100.00
45357;BME280;31092;51.924;21.448;2023-05-07T04:20:14;100946.81;;;4.85;100.00
45357;BME280;31092;51.924;21.448;2023-05-07T04:22:40;100953.00;;;4.85;100.00
45357;BME280;31092;51.924;21.448;2023-05-07T04:25:06;100959.31;;;4.84;100.00
45357;BME280;31092;51.924;21.448;2023-05-07T04:27:31;100953.22;;;4.82;100.00
45357;BME280;31092;51.924;21.448;2023-05-07T04:29:57;100958.34;;;4.85;100.00
45357;BME280;31092;51.924;21.448;2023-05-07T04:32:22;100956.50;;;4.86;100.00
45357;BME280;31092;51.924;21.448;2023-05-07T04:34:50;100963.44;;;4.88;100.00
45357;BME280;31092;51.924;21.448;2023-05-07T04:37:15;100967.81;;;4.89;100.00
45357;BME280;31092;51.924;21.448;2023-05-07T04:39:40;100963.31;;;4.90;100.00
45357;BME280;31092;51.924;21.448;2023-05-07T04:42:06;100974.84;;;4.90;100.00
45357;BME280;31092;51.924;21.448;2023-05-07T04:44:33;100969.41;;;4.92;100.00
45357;BME280;31092;51.924;21.448;2023-05-07T04:46:59;100974.00;;;4.90;100.00
45357;BME280;31092;51.924;21.448;2023-05-07T04:49:25;100974.84;;;4.90;100.00
45357;BME280;31092;51.924;21.448;2023-05-07T04:51:50;100973.91;;;4.91;100.00
45357;BME280;31092;51.924;21.448;2023-05-07T04:54:16;100979.25;;;4.91;100.00
45357;BME280;31092;51.924;21.448;2023-05-07T04:56:41;100992.34;;;4.94;100.00
45357;BME280;31092;51.924;21.448;2023-05-07T04:59:06;100983.41;;;4.95;100.00
45357;BME280;31092;51.924;21.448;2023-05-07T05:01:32;100982.41;;;4.96;100.00
45357;BME280;31092;51.924;21.448;2023-05-07T05:03:57;100987.53;;;4.99;100.00
45357;BME280;31092;51.924;21.448;2023-05-07T05:06:22;100990.84;;;5.03;100.00
45357;BME280;31092;51.924;21.448;2023-05-07T05:08:48;101001.09;;;5.09;100.00
45357;BME280;31092;51.924;21.448;2023-05-07T05:11:13;100998.91;;;5.14;100.00
45357;BME280;31092;51.924;21.448;2023-05-07T05:13:38;100999.53;;;5.18;100.00
45357;BME280;31092;51.924;21.448;2023-05-07T05:16:04;100999.09;;;5.24;100.00
45357;BME280;31092;51.924;21.448;2023-05-07T05:18:29;100993.53;;;5.27;100.00
45357;BME280;31092;51.924;21.448;2023-05-07T05:20:55;101012.09;;;5.28;100.00
45357;BME280;31092;51.924;21.448;2023-05-07T05:23:20;101015.63;;;5.29;100.00
45357;BME280;31092;51.924;21.448;2023-05-07T05:25:45;101021.94;;;5.28;100.00
45357;BME280;31092;51.924;21.448;2023-05-07T05:28:11;101015.84;;;5.26;100.00
45357;BME280;31092;51.924;21.448;2023-05-07T05:30:36;101021.19;;;5.26;100.00
45357;BME280;31092;51.924;21.448;2023-05-07T05:33:01;101018.44;;;5.27;100.00
45357;BME280;31092;51.924;21.448;2023-05-07T05:35:27;101022.91;;;5.27;100.00
45357;BME280;31092;51.924;21.448;2023-05-07T05:37:52;101029.09;;;5.27;100.00
45357;BME280;31092;51.924;21.448;2023-05-07T05:40:17;101026.09;;;5.32;100.00
45357;BME280;31092;51.924;21.448;2023-05-07T05:42:43;101033.03;;;5.35;100.00
45357;BME280;31092;51.924;21.448;2023-05-07T05:45:08;101037.19;;;5.39;100.00
45357;BME280;31092;51.924;21.448;2023-05-07T05:47:34;101030.78;;;5.41;100.00
45357;BME280;31092;51.924;21.448;2023-05-07T05:49:59;101041.34;;;5.43;100.00
45357;BME280;31092;51.924;21.448;2023-05-07T05:52:24;101039.41;;;5.45;100.00
45357;BME280;31092;51.924;21.448;2023-05-07T05:54:50;101043.91;;;5.44;100.00
45357;BME280;31092;51.924;21.448;2023-05-07T05:57:15;101043.78;;;5.46;100.00
45357;BME280;31092;51.924;21.448;2023-05-07T05:59:40;101045.81;;;5.42;100.00
45357;BME280;31092;51.924;21.448;2023-05-07T06:02:06;101047.44;;;5.45;100.00
45357;BME280;31092;51.924;21.448;2023-05-07T06:04:31;101047.22;;;5.48;100.00
45357;BME280;31092;51.924;21.448;2023-05-07T06:06:57;101049.97;;;5.46;100.00
45357;BME280;31092;51.924;21.448;2023-05-07T06:09:22;101056.28;;;5.45;100.00
45357;BME280;31092;51.924;21.448;2023-05-07T06:11:47;101055.44;;;5.45;100.00
45357;BME280;31092;51.924;21.448;2023-05-07T06:14:13;101058.00;;;5.46;100.00
45357;BME280;31092;51.924;21.448;2023-05-07T06:16:38;101054.47;;;5.46;100.00
45357;BME280;31092;51.924;21.448;2023-05-07T06:19:04;101066.00;;;5.46;100.00
45357;BME280;31092;51.924;21.448;2023-05-07T06:21:29;101058.00;;;5.46;100.00
45357;BME280;31092;51.924;21.448;2023-05-07T06:23:55;101067.97;;;5.44;100.00
45357;BME280;31092;51.924;21.448;2023-05-07T06:26:20;101066.97;;;5.45;100.00
45357;BME280;31092;51.924;21.448;2023-05-07T06:28:46;101068.81;;;5.45;100.00
45357;BME280;31092;51.924;21.448;2023-05-07T06:31:15;101074.16;;;5.45;100.00
45357;BME280;31092;51.924;21.448;2023-05-07T06:33:41;101081.19;;;5.46;100.00
45357;BME280;31092;51.924;21.448;2023-05-07T06:36:06;101075.00;;;5.45;100.00
45357;BME280;31092;51.924;21.448;2023-05-07T06:38:32;101082.78;;;5.48;100.00
45357;BME280;31092;51.924;21.448;2023-05-07T06:40:57;101090.59;;;5.51;100.00
45357;BME280;31092;51.924;21.448;2023-05-07T06:43:22;101085.13;;;5.53;100.00
45357;BME280;31092;51.924;21.448;2023-05-07T06:45:48;101084.13;;;5.54;100.00
45357;BME280;31092;51.924;21.448;2023-05-07T06:48:13;101080.41;;;5.57;100.00
45357;BME280;31092;51.924;21.448;2023-05-07T06:50:38;101081.88;;;5.61;100.00
45357;BME280;31092;51.924;21.448;2023-05-07T06:53:04;101088.91;;;5.62;100.00
45357;BME280;31092;51.924;21.448;2023-05-07T06:55:29;101083.47;;;5.63;100.00
45357;BME280;31092;51.924;21.448;2023-05-07T06:57:54;101081.31;;;5.68;100.00
45357;BME280;31092;51.924;21.448;2023-05-07T07:00:20;101077.13;;;5.77;100.00
45357;BME280;31092;51.924;21.448;2023-05-07T07:02:45;101085.91;;;5.90;100.00
45357;BME280;31092;51.924;21.448;2023-05-07T07:05:10;101083.44;;;6.00;100.00
45357;BME280;31092;51.924;21.448;2023-05-07T07:07:36;101083.47;;;6.11;100.00
45357;BME280;31092;51.924;21.448;2023-05-07T07:10:01;101085.56;;;6.19;100.00
45357;BME280;31092;51.924;21.448;2023-05-07T07:12:28;101086.66;;;6.16;100.00
45357;BME280;31092;51.924;21.448;2023-05-07T07:14:54;101084.47;;;6.21;100.00
45357;BME280;31092;51.924;21.448;2023-05-07T07:17:20;101080.25;;;6.30;100.00
45357;BME280;31092;51.924;21.448;2023-05-07T07:19:45;101093.41;;;6.33;100.00
45357;BME280;31092;51.924;21.448;2023-05-07T07:22:11;101093.63;;;6.30;100.00
45357;BME280;31092;51.924;21.448;2023-05-07T07:24:36;101106.63;;;6.23;100.00
45357;BME280;31092;51.924;21.448;2023-05-07T07:27:01;101099.91;;;6.18;100.00
45357;BME280;31092;51.924;21.448;2023-05-07T07:29:27;101115.31;;;6.14;100.00
45357;BME280;31092;51.924;21.448;2023-05-07T07:31:52;101113.63;;;6.13;100.00
45357;BME280;31092;51.924;21.448;2023-05-07T07:34:17;101124.44;;;6.12;100.00
45357;BME280;31092;51.924;21.448;2023-05-07T07:36:43;101127.22;;;6.10;100.00
45357;BME280;31092;51.924;21.448;2023-05-07T07:39:08;101127.47;;;6.07;100.00
45357;BME280;31092;51.924;21.448;2023-05-07T07:41:33;101129.28;;;6.07;100.00
45357;BME280;31092;51.924;21.448;2023-05-07T07:43:59;101131.13;;;6.06;100.00
45357;BME280;31092;51.924;21.448;2023-05-07T07:46:24;101141.91;;;6.05;100.00
45357;BME280;31092;51.924;21.448;2023-05-07T07:48:49;101137.44;;;6.05;100.00
45357;BME280;31092;51.924;21.448;2023-05-07T07:51:14;101141.06;;;6.04;100.00
45357;BME280;31092;51.924;21.448;2023-05-07T07:53:40;101136.69;;;6.03;100.00
45357;BME280;31092;51.924;21.448;2023-05-07T07:56:06;101141.19;;;6.03;100.00
45357;BME280;31092;51.924;21.448;2023-05-07T07:58:31;101140.13;;;6.05;100.00
45357;BME280;31092;51.924;21.448;2023-05-07T08:00:56;101141.69;;;6.08;100.00
45357;BME280;31092;51.924;21.448;2023-05-07T08:03:22;101148.84;;;6.07;100.00
45357;BME280;31092;51.924;21.448;2023-05-07T08:05:47;101149.59;;;6.09;100.00
45357;BME280;31092;51.924;21.448;2023-05-07T08:08:14;101146.94;;;6.09;100.00
45357;BME280;31092;51.924;21.448;2023-05-07T08:10:40;101142.44;;;6.10;100.00
45357;BME280;31092;51.924;21.448;2023-05-07T08:13:06;101139.63;;;6.11;100.00
45357;BME280;31092;51.924;21.448;2023-05-07T08:15:31;101149.13;;;6.15;100.00
45357;BME280;31092;51.924;21.448;2023-05-07T08:17:57;101144.19;;;6.22;100.00
45357;BME280;31092;51.924;21.448;2023-05-07T08:20:23;101145.41;;;6.29;100.00
45357;BME280;31092;51.924;21.448;2023-05-07T08:22:48;101145.31;;;6.31;100.00
45357;BME280;31092;51.924;21.448;2023-05-07T08:25:14;101143.50;;;6.31;100.00
45357;BME280;31092;51.924;21.448;2023-05-07T08:27:39;101147.75;;;6.34;100.00
45357;BME280;31092;51.924;21.448;2023-05-07T08:30:06;101153.97;;;6.34;100.00
45357;BME280;31092;51.924;21.448;2023-05-07T08:32:32;101155.66;;;6.35;100.00
45357;BME280;31092;51.924;21.448;2023-05-07T08:34:57;101159.31;;;6.34;100.00
45357;BME280;31092;51.924;21.448;2023-05-07T08:37:22;101164.66;;;6.34;100.00
45357;BME280;31092;51.924;21.448;2023-05-07T08:39:48;101172.69;;;6.34;100.00
45357;BME280;31092;51.924;21.448;2023-05-07T08:42:13;101169.03;;;6.35;100.00
45357;BME280;31092;51.924;21.448;2023-05-07T08:44:41;101162.47;;;6.39;100.00
45357;BME280;31092;51.924;21.448;2023-05-07T08:47:10;101157.75;;;6.43;100.00
45357;BME280;31092;51.924;21.448;2023-05-07T08:49:36;101162.50;;;6.51;100.00
45357;BME280;31092;51.924;21.448;2023-05-07T08:52:01;101157.06;;;6.52;100.00
45357;BME280;31092;51.924;21.448;2023-05-07T08:54:27;101156.84;;;6.55;100.00
45357;BME280;31092;51.924;21.448;2023-05-07T08:56:54;101163.75;;;6.58;100.00
45357;BME280;31092;51.924;21.448;2023-05-07T08:59:19;101165.34;;;6.60;100.00
45357;BME280;31092;51.924;21.448;2023-05-07T09:01:45;101173.91;;;6.65;100.00
45357;BME280;31092;51.924;21.448;2023-05-07T09:04:10;101170.97;;;6.68;100.00
45357;BME280;31092;51.924;21.448;2023-05-07T09:06:37;101170.72;;;6.71;100.00
45357;BME280;31092;51.924;21.448;2023-05-07T09:09:06;101170.50;;;6.75;100.00
45357;BME280;31092;51.924;21.448;2023-05-07T09:11:32;101171.47;;;6.74;100.00
45357;BME280;31092;51.924;21.448;2023-05-07T09:13:57;101167.72;;;6.76;100.00
45357;BME280;31092;51.924;21.448;2023-05-07T09:16:26;101176.59;;;6.77;100.00
45357;BME280;31092;51.924;21.448;2023-05-07T09:18:53;101172.81;;;6.79;100.00
45357;BME280;31092;51.924;21.448;2023-05-07T09:21:19;101172.25;;;6.87;100.00
45357;BME280;31092;51.924;21.448;2023-05-07T09:23:45;101181.75;;;6.91;100.00
45357;BME280;31092;51.924;21.448;2023-05-07T09:26:12;101171.75;;;6.93;100.00
45357;BME280;31092;51.924;21.448;2023-05-07T09:28:39;101187.34;;;6.99;100.00
45357;BME280;31092;51.924;21.448;2023-05-07T09:31:06;101193.31;;;7.03;100.00
45357;BME280;31092;51.924;21.448;2023-05-07T09:33:31;101190.28;;;7.07;100.00
45357;BME280;31092;51.924;21.448;2023-05-07T09:35:57;101194.69;;;7.08;100.00
45357;BME280;31092;51.924;21.448;2023-05-07T09:38:22;101196.47;;;7.08;100.00
45357;BME280;31092;51.924;21.448;2023-05-07T09:40:47;101197.00;;;7.13;100.00
45357;BME280;31092;51.924;21.448;2023-05-07T09:43:26;101210.16;;;7.16;100.00
45357;BME280;31092;51.924;21.448;2023-05-07T09:45:51;101185.78;;;7.19;100.00
45357;BME280;31092;51.924;21.448;2023-05-07T09:48:17;101201.38;;;7.25;100.00
45357;BME280;31092;51.924;21.448;2023-05-07T09:50:49;101195.16;;;7.25;100.00
45357;BME280;31092;51.924;21.448;2023-05-07T09:53:16;101198.69;;;7.25;100.00
45357;BME280;31092;51.924;21.448;2023-05-07T09:55:43;101200.75;;;7.22;100.00
45357;BME280;31092;51.924;21.448;2023-05-07T09:58:08;101208.94;;;7.20;100.00
45357;BME280;31092;51.924;21.448;2023-05-07T10:00:34;101215.88;;;7.23;100.00
45357;BME280;31092;51.924;21.448;2023-05-07T10:03:00;101212.59;;;7.19;100.00
45357;BME280;31092;51.924;21.448;2023-05-07T10:05:26;101215.13;;;7.20;100.00
45357;BME280;31092;51.924;21.448;2023-05-07T10:07:52;101220.03;;;7.27;100.00
45357;BME280;31092;51.924;21.448;2023-05-07T10:10:18;101215.50;;;7.38;100.00
45357;BME280;31092;51.924;21.448;2023-05-07T10:12:44;101218.56;;;7.45;100.00
45357;BME280;31092;51.924;21.448;2023-05-07T10:15:10;101232.44;;;7.50;100.00
45357;BME280;31092;51.924;21.448;2023-05-07T10:17:36;101228.81;;;7.51;100.00
45357;BME280;31092;51.924;21.448;2023-05-07T10:20:01;101234.88;;;7.53;100.00
45357;BME280;31092;51.924;21.448;2023-05-07T10:22:27;101232.56;;;7.49;100.00
45357;BME280;31092;51.924;21.448;2023-05-07T10:24:56;101243.91;;;7.41;100.00
45357;BME280;31092;51.924;21.448;2023-05-07T10:27:24;101240.72;;;7.36;100.00
45357;BME280;31092;51.924;21.448;2023-05-07T10:35:31;101243.91;;;7.30;100.00
45357;BME280;31092;51.924;21.448;2023-05-07T10:37:57;101247.91;;;7.35;100.00
45357;BME280;31092;51.924;21.448;2023-05-07T10:40:23;101249.03;;;7.44;100.00
45357;BME280;31092;51.924;21.448;2023-05-07T10:45:20;101238.31;;;7.55;100.00
45357;BME280;31092;51.924;21.448;2023-05-07T10:50:30;101246.34;;;7.66;100.00
45357;BME280;31092;51.924;21.448;2023-05-07T10:56:39;101238.53;;;7.75;100.00
45357;BME280;31092;51.924;21.448;2023-05-07T10:58:39;101237.31;;;7.79;100.00
45357;BME280;31092;51.924;21.448;2023-05-07T11:01:04;101248.78;;;7.81;100.00
45357;BME280;31092;51.924;21.448;2023-05-07T11:03:30;101249.88;;;7.78;100.00
45357;BME280;31092;51.924;21.448;2023-05-07T11:08:59;101250.00;;;7.77;100.00
45357;BME280;31092;51.924;21.448;2023-05-07T11:14:08;101199.19;;;7.53;100.00
45357;BME280;31092;51.924;21.448;2023-05-07T11:16:33;101254.13;;;7.92;100.00
45357;BME280;31092;51.924;21.448;2023-05-07T11:19:01;101261.69;;;7.98;100.00
45357;BME280;31092;51.924;21.448;2023-05-07T11:21:39;101262.91;;;7.94;100.00
45357;BME280;31092;51.924;21.448;2023-05-07T11:24:09;101258.78;;;7.90;100.00
45357;BME280;31092;51.924;21.448;2023-05-07T11:26:45;101261.72;;;7.87;100.00
45357;BME280;31092;51.924;21.448;2023-05-07T11:29:11;101268.53;;;7.80;100.00
45357;BME280;31092;51.924;21.448;2023-05-07T11:31:37;101269.50;;;7.79;100.00
45357;BME280;31092;51.924;21.448;2023-05-07T11:34:02;101269.25;;;7.82;100.00
45357;BME280;31092;51.924;21.448;2023-05-07T11:36:32;101261.56;;;7.88;100.00
45357;BME280;31092;51.924;21.448;2023-05-07T11:38:58;101255.56;;;7.96;100.00
45357;BME280;31092;51.924;21.448;2023-05-07T11:41:32;101257.03;;;8.00;100.00
45357;BME280;31092;51.924;21.448;2023-05-07T11:44:00;101258.25;;;8.07;100.00
45357;BME280;31092;51.924;21.448;2023-05-07T11:46:26;101262.88;;;8.16;100.00
45357;BME280;31092;51.924;21.448;2023-05-07T11:48:51;101269.91;;;8.29;100.00
45357;BME280;31092;51.924;21.448;2023-05-07T11:51:20;101270.25;;;8.35;100.00
45357;BME280;31092;51.924;21.448;2023-05-07T11:53:46;101276.63;;;8.34;100.00
45357;BME280;31092;51.924;21.448;2023-05-07T11:56:12;101278.31;;;8.35;100.00
45357;BME280;31092;51.924;21.448;2023-05-07T11:58:38;101273.09;;;8.34;100.00
45357;BME280;31092;51.924;21.448;2023-05-07T12:01:03;101277.97;;;8.29;100.00
45357;BME280;31092;51.924;21.448;2023-05-07T12:03:29;101279.44;;;8.22;100.00
45357;BME280;31092;51.924;21.448;2023-05-07T12:05:54;101282.03;;;8.12;100.00
45357;BME280;31092;51.924;21.448;2023-05-07T12:08:20;101277.63;;;8.11;100.00
45357;BME280;31092;51.924;21.448;2023-05-07T12:10:47;101281.91;;;8.13;100.00
45357;BME280;31092;51.924;21.448;2023-05-07T12:13:16;101277.13;;;8.17;100.00
45357;BME280;31092;51.924;21.448;2023-05-07T12:15:42;101271.53;;;8.20;100.00
45357;BME280;31092;51.924;21.448;2023-05-07T12:18:08;101275.88;;;8.32;100.00
45357;BME280;31092;51.924;21.448;2023-05-07T12:20:34;101283.22;;;8.42;100.00
45357;BME280;31092;51.924;21.448;2023-05-07T12:22:59;101283.09;;;8.43;100.00
45357;BME280;31092;51.924;21.448;2023-05-07T12:25:26;101281.28;;;8.44;100.00
45357;BME280;31092;51.924;21.448;2023-05-07T12:27:51;101280.66;;;8.40;100.00
45357;BME280;31092;51.924;21.448;2023-05-07T12:30:17;101288.84;;;8.38;100.00
45357;BME280;31092;51.924;21.448;2023-05-07T12:32:43;101288.19;;;8.35;100.00
45357;BME280;31092;51.924;21.448;2023-05-07T12:35:10;101286.75;;;8.31;100.00
45357;BME280;31092;51.924;21.448;2023-05-07T12:37:35;101294.41;;;8.35;100.00
45357;BME280;31092;51.924;21.448;2023-05-07T12:40:09;101294.81;;;8.42;100.00
45357;BME280;31092;51.924;21.448;2023-05-07T12:42:36;101292.84;;;8.44;100.00
45357;BME280;31092;51.924;21.448;2023-05-07T12:45:11;101294.69;;;8.44;100.00
45357;BME280;31092;51.924;21.448;2023-05-07T12:47:37;101296.25;;;8.35;100.00
45357;BME280;31092;51.924;21.448;2023-05-07T12:50:04;101300.31;;;8.29;100.00
45357;BME280;31092;51.924;21.448;2023-05-07T12:52:30;101299.81;;;8.24;100.00
45357;BME280;31092;51.924;21.448;2023-05-07T12:54:56;101302.50;;;8.24;100.00